Time;durP1;ratioP1;P1;durP2;ratioP2;P2;SDS_P1;SDS_P2;PMS_P1;PMS_P2;Temp;Humidity;BMP_temperature;BMP_pressure;BME280_temperature;BME280_humidity;BME280_pressure;Samples;Min_cycle;Max_cycle;Signal;HPM_P1;HPM_P2
2022/02/22 00:01:54;;;;;;;;;;;18.30;53.20;;;;;;5003899;28;19920;-49
2022/02/22 00:04:20;;;;;;;;;;;18.20;53.30;;;;;;5000157;28;19914;-49
2022/02/22 00:06:45;;;;;;;;;;;18.30;53.30;;;;;;5000422;28;19917;-53
2022/02/22 00:09:11;;;;;;;;;;;18.20;53.20;;;;;;4999694;28;19930;-52
2022/02/22 00:11:36;;;;;;;;;;;18.20;53.40;;;;;;4982866;28;19918;-49
2022/02/22 00:14:01;;;;;;;;;;;18.40;53.20;;;;;;4990180;28;19914;-48
2022/02/22 00:16:27;;;;;;;;;;;18.40;53.10;;;;;;4983652;28;19925;-53
2022/02/22 00:18:52;;;;;;;;;;;18.40;53.20;;;;;;4988905;28;20295;-52
2022/02/22 00:21:18;;;;;;;;;;;18.40;53.10;;;;;;4984576;28;19921;-49
2022/02/22 00:23:43;;;;;;;;;;;18.40;53.30;;;;;;4984410;28;20385;-49
2022/02/22 00:26:09;;;;;;;;;;;18.40;53.30;;;;;;4984497;28;19917;-55
2022/02/22 00:28:34;;;;;;;;;;;18.40;53.30;;;;;;4983226;28;20295;-49
2022/02/22 00:31:00;;;;;;;;;;;18.30;53.40;;;;;;4995046;28;19988;-53
2022/02/22 00:33:28;;;;;;;;;;;18.30;53.40;;;;;;5003264;28;19917;-52
2022/02/22 00:35:54;;;;;;;;;;;18.30;53.40;;;;;;4983460;28;19963;-54
2022/02/22 00:38:20;;;;;;;;;;;18.30;53.50;;;;;;4992548;28;19949;-52
2022/02/22 00:40:46;;;;;;;;;;;18.30;53.40;;;;;;4992326;28;20110;-54
2022/02/22 00:43:11;;;;;;;;;;;18.30;53.50;;;;;;5004115;28;19922;-54
2022/02/22 00:45:37;;;;;;;;;;;18.30;53.50;;;;;;4993411;28;19918;-49
2022/02/22 00:48:02;;;;;;;;;;;18.30;53.50;;;;;;4984550;28;19914;-56
2022/02/22 00:50:28;;;;;;;;;;;18.30;53.50;;;;;;4983589;28;20917;-51
2022/02/22 00:52:55;;;;;;;;;;;18.20;53.40;;;;;;4983037;28;20422;-49
2022/02/22 00:55:20;;;;;;;;;;;18.20;53.40;;;;;;4966603;28;19928;-49
2022/02/22 00:57:45;;;;;;;;;;;18.20;53.50;;;;;;4984032;28;19914;-52
2022/02/22 01:00:11;;;;;;;;;;;18.20;53.40;;;;;;4987806;28;19997;-50
2022/02/22 01:02:37;;;;;;;;;;;18.20;53.40;;;;;;4984902;28;19941;-52
2022/02/22 01:05:03;;;;;;;;;;;18.20;53.40;;;;;;4992165;28;19914;-51
2022/02/22 01:07:28;;;;;;;;;;;18.20;53.60;;;;;;4992308;28;20049;-53
2022/02/22 01:09:54;;;;;;;;;;;18.20;53.50;;;;;;4983911;28;19929;-52
2022/02/22 01:12:19;;;;;;;;;;;18.10;53.40;;;;;;4985056;28;19914;-52
2022/02/22 01:14:45;;;;;;;;;;;18.30;53.40;;;;;;4991269;28;19968;-54
2022/02/22 01:17:10;;;;;;;;;;;18.30;53.30;;;;;;4993744;28;20037;-56
2022/02/22 01:19:36;;;;;;;;;;;18.40;53.20;;;;;;4983277;28;19964;-52
2022/02/22 01:22:01;;;;;;;;;;;18.40;53.30;;;;;;4982632;28;19920;-54
2022/02/22 01:24:27;;;;;;;;;;;18.30;53.30;;;;;;4983294;28;20038;-55
2022/02/22 01:26:52;;;;;;;;;;;18.30;53.30;;;;;;4983408;28;19945;-50
2022/02/22 01:29:18;;;;;;;;;;;18.30;53.40;;;;;;5001177;28;20377;-50
2022/02/22 01:31:44;;;;;;;;;;;18.30;53.40;;;;;;4990197;28;20268;-53
2022/02/22 01:34:09;;;;;;;;;;;18.30;53.40;;;;;;4983797;28;19988;-50
2022/02/22 01:36:35;;;;;;;;;;;18.30;53.50;;;;;;4983078;28;19936;-52
2022/02/22 01:39:00;;;;;;;;;;;18.30;53.40;;;;;;4983551;28;19922;-51
2022/02/22 01:41:27;;;;;;;;;;;18.30;53.40;;;;;;4983250;28;20065;-55
2022/02/22 01:43:53;;;;;;;;;;;18.30;53.40;;;;;;4988443;28;19913;-54
2022/02/22 01:46:18;;;;;;;;;;;18.30;53.50;;;;;;4976331;28;20370;-54
2022/02/22 01:48:43;;;;;;;;;;;18.30;53.40;;;;;;5002650;28;19917;-55
2022/02/22 01:51:09;;;;;;;;;;;18.20;53.40;;;;;;4985159;28;19920;-54
2022/02/22 01:53:34;;;;;;;;;;;18.20;53.40;;;;;;4995821;28;19972;-51
2022/02/22 01:56:00;;;;;;;;;;;18.20;53.40;;;;;;4992837;28;19922;-51
2022/02/22 01:58:26;;;;;;;;;;;18.20;53.40;;;;;;4986466;28;19968;-50
2022/02/22 02:00:52;;;;;;;;;;;18.20;53.40;;;;;;4996620;28;20001;-48
2022/02/22 02:03:17;;;;;;;;;;;18.20;53.40;;;;;;4984283;28;20399;-49
2022/02/22 02:05:43;;;;;;;;;;;18.10;53.40;;;;;;4998487;28;19921;-48
2022/02/22 02:08:08;;;;;;;;;;;18.20;53.30;;;;;;4982597;28;19984;-51
2022/02/22 02:10:34;;;;;;;;;;;18.10;53.30;;;;;;4982849;28;19977;-53
2022/02/22 02:12:59;;;;;;;;;;;18.10;53.30;;;;;;4983072;28;20327;-49
2022/02/22 02:15:25;;;;;;;;;;;18.10;53.30;;;;;;4982670;28;20080;-49
2022/02/22 02:17:50;;;;;;;;;;;18.10;53.30;;;;;;4983890;28;19921;-50
2022/02/22 02:20:16;;;;;;;;;;;18.00;53.30;;;;;;4989162;28;20482;-51
2022/02/22 02:22:43;;;;;;;;;;;18.10;53.40;;;;;;4987958;28;20083;-49
2022/02/22 02:25:09;;;;;;;;;;;18.00;53.40;;;;;;4966676;28;19937;-50
2022/02/22 02:27:34;;;;;;;;;;;18.00;53.30;;;;;;4983242;28;20383;-52
2022/02/22 02:30:00;;;;;;;;;;;18.00;53.30;;;;;;4982200;28;20391;-53
2022/02/22 02:32:26;;;;;;;;;;;18.10;53.30;;;;;;4986705;28;19941;-50
2022/02/22 02:34:51;;;;;;;;;;;18.10;53.30;;;;;;4997270;28;19918;-49
2022/02/22 02:37:17;;;;;;;;;;;18.00;53.20;;;;;;4965279;28;19914;-52
2022/02/22 02:39:43;;;;;;;;;;;18.00;53.30;;;;;;4981812;28;19918;-51
2022/02/22 02:42:08;;;;;;;;;;;18.00;53.30;;;;;;4983248;28;19914;-52
2022/02/22 02:44:34;;;;;;;;;;;18.00;53.20;;;;;;4983582;28;19936;-50
2022/02/22 02:46:59;;;;;;;;;;;18.00;53.30;;;;;;4986666;28;19914;-48
2022/02/22 02:49:25;;;;;;;;;;;18.00;53.30;;;;;;4983052;28;19914;-52
2022/02/22 02:51:51;;;;;;;;;;;18.00;53.30;;;;;;4982137;28;20279;-50
2022/02/22 02:54:16;;;;;;;;;;;18.00;53.30;;;;;;4985193;28;19981;-52
2022/02/22 02:56:42;;;;;;;;;;;17.90;53.30;;;;;;5001633;28;19999;-51
2022/02/22 02:59:08;;;;;;;;;;;17.90;53.30;;;;;;4996984;28;19921;-51
2022/02/22 03:01:34;;;;;;;;;;;17.90;53.30;;;;;;4990647;28;19945;-51
2022/02/22 03:03:59;;;;;;;;;;;17.80;53.50;;;;;;4998074;28;20520;-49
2022/02/22 03:06:25;;;;;;;;;;;17.90;53.50;;;;;;5004997;28;20415;-50
2022/02/22 03:08:50;;;;;;;;;;;17.80;53.60;;;;;;4988806;28;20387;-52
2022/02/22 03:11:15;;;;;;;;;;;17.80;53.50;;;;;;4977249;28;19914;-49
2022/02/22 03:13:41;;;;;;;;;;;17.80;53.70;;;;;;4999067;28;19913;-52
2022/02/22 03:16:06;;;;;;;;;;;17.80;53.70;;;;;;4986008;28;20603;-49
2022/02/22 03:18:32;;;;;;;;;;;17.70;53.80;;;;;;4996492;28;20193;-49
2022/02/22 03:20:57;;;;;;;;;;;17.80;53.70;;;;;;4992467;28;19992;-50
2022/02/22 03:23:23;;;;;;;;;;;17.70;53.70;;;;;;5001369;28;19913;-48
2022/02/22 03:25:48;;;;;;;;;;;17.70;53.70;;;;;;5004669;28;19917;-51
2022/02/22 03:28:14;;;;;;;;;;;17.70;53.90;;;;;;4985976;28;19921;-50
2022/02/22 03:30:39;;;;;;;;;;;17.60;54.00;;;;;;4999251;28;20267;-51
2022/02/22 03:33:05;;;;;;;;;;;17.60;54.00;;;;;;4988343;28;19918;-51
2022/02/22 03:35:30;;;;;;;;;;;17.60;54.10;;;;;;4993989;28;19922;-51
2022/02/22 03:37:56;;;;;;;;;;;17.60;54.00;;;;;;4995924;28;19921;-50
2022/02/22 03:40:21;;;;;;;;;;;17.60;54.10;;;;;;4998672;28;19917;-54
2022/02/22 03:42:47;;;;;;;;;;;17.60;54.00;;;;;;5000978;28;19988;-51
2022/02/22 03:45:13;;;;;;;;;;;17.60;54.00;;;;;;4989618;28;19944;-49
2022/02/22 03:47:38;;;;;;;;;;;17.50;54.10;;;;;;4985796;28;20340;-51
2022/02/22 03:50:04;;;;;;;;;;;17.60;54.10;;;;;;4997614;28;19914;-52
2022/02/22 03:52:30;;;;;;;;;;;17.50;54.10;;;;;;4989226;28;19925;-51
2022/02/22 03:54:56;;;;;;;;;;;17.50;54.10;;;;;;5000187;28;19918;-49
2022/02/22 03:57:21;;;;;;;;;;;17.60;54.20;;;;;;4987242;28;20001;-51
2022/02/22 03:59:47;;;;;;;;;;;17.50;54.10;;;;;;4985285;28;19914;-48
2022/02/22 04:02:12;;;;;;;;;;;17.60;54.10;;;;;;4984881;28;19931;-49
2022/02/22 04:04:37;;;;;;;;;;;17.60;54.10;;;;;;4986075;28;19918;-49
2022/02/22 04:07:03;;;;;;;;;;;17.50;54.20;;;;;;4990131;28;20314;-49
2022/02/22 04:09:28;;;;;;;;;;;17.50;54.20;;;;;;4993253;28;19922;-54
2022/02/22 04:11:54;;;;;;;;;;;17.50;54.20;;;;;;5004352;28;19913;-55
2022/02/22 04:14:19;;;;;;;;;;;17.50;54.20;;;;;;4992318;28;20283;-49
2022/02/22 04:16:45;;;;;;;;;;;17.50;54.20;;;;;;4997410;28;19924;-51
2022/02/22 04:19:10;;;;;;;;;;;17.50;54.20;;;;;;4990869;28;19961;-51
2022/02/22 04:21:36;;;;;;;;;;;17.50;54.10;;;;;;4984909;28;19914;-49
2022/02/22 04:24:01;;;;;;;;;;;17.50;54.10;;;;;;4999757;28;20310;-52
2022/02/22 04:26:27;;;;;;;;;;;17.50;54.10;;;;;;5001156;28;19914;-51
2022/02/22 04:28:54;;;;;;;;;;;17.50;54.10;;;;;;4990379;28;20348;-52
2022/02/22 04:31:19;;;;;;;;;;;17.50;54.10;;;;;;4977105;28;19980;-49
2022/02/22 04:33:44;;;;;;;;;;;17.50;54.10;;;;;;4987858;28;20367;-52
2022/02/22 04:36:10;;;;;;;;;;;17.50;54.20;;;;;;4997439;28;19983;-50
2022/02/22 04:38:35;;;;;;;;;;;17.50;54.20;;;;;;4989732;28;19953;-53
2022/02/22 04:41:01;;;;;;;;;;;17.50;54.30;;;;;;5000150;28;19913;-49
2022/02/22 04:43:26;;;;;;;;;;;17.50;54.10;;;;;;5002701;28;19920;-50
2022/02/22 04:45:52;;;;;;;;;;;17.50;54.20;;;;;;4992876;28;19951;-53
2022/02/22 04:48:17;;;;;;;;;;;17.50;54.10;;;;;;5003412;28;19913;-50
2022/02/22 04:50:43;;;;;;;;;;;17.50;54.10;;;;;;5001732;28;19928;-50
2022/02/22 04:53:09;;;;;;;;;;;17.50;54.10;;;;;;4996535;28;20295;-50
2022/02/22 04:55:35;;;;;;;;;;;17.50;54.10;;;;;;4984064;28;19924;-51
2022/02/22 04:58:00;;;;;;;;;;;17.50;54.00;;;;;;4983689;28;19917;-50
2022/02/22 05:00:26;;;;;;;;;;;17.60;54.00;;;;;;4988698;28;19913;-50
2022/02/22 05:02:51;;;;;;;;;;;17.50;53.90;;;;;;4990743;28;19914;-48
2022/02/22 05:05:17;;;;;;;;;;;17.60;54.00;;;;;;4983530;28;19922;-49
2022/02/22 05:07:42;;;;;;;;;;;17.60;54.00;;;;;;5001151;28;19918;-49
2022/02/22 05:10:08;;;;;;;;;;;17.60;54.00;;;;;;4999267;28;20587;-49
2022/02/22 05:12:33;;;;;;;;;;;17.60;54.00;;;;;;5003180;28;19919;-50
2022/02/22 05:14:59;;;;;;;;;;;17.60;54.00;;;;;;4993624;28;19928;-50
2022/02/22 05:17:24;;;;;;;;;;;17.60;54.00;;;;;;4983636;28;19917;-50
2022/02/22 05:19:50;;;;;;;;;;;17.60;54.00;;;;;;4985448;28;20276;-52
2022/02/22 05:22:15;;;;;;;;;;;17.70;54.00;;;;;;4986939;28;19937;-52
2022/02/22 05:24:41;;;;;;;;;;;17.60;54.00;;;;;;4997379;28;19914;-52
2022/02/22 05:27:06;;;;;;;;;;;17.70;54.00;;;;;;4983861;28;19924;-50
2022/02/22 05:29:32;;;;;;;;;;;17.70;54.00;;;;;;4990546;28;19928;-52
2022/02/22 05:31:58;;;;;;;;;;;17.70;54.00;;;;;;5001435;28;20375;-52
2022/02/22 05:34:23;;;;;;;;;;;17.70;54.00;;;;;;5001661;28;19917;-46
2022/02/22 05:36:49;;;;;;;;;;;17.80;54.10;;;;;;4993305;28;20341;-51
2022/02/22 05:39:14;;;;;;;;;;;17.80;54.00;;;;;;4988308;28;19941;-55
2022/02/22 05:41:40;;;;;;;;;;;17.80;54.00;;;;;;4986567;28;19952;-54
2022/02/22 05:44:05;;;;;;;;;;;17.80;54.10;;;;;;4983743;28;19922;-50
2022/02/22 05:46:30;;;;;;;;;;;17.80;54.10;;;;;;4984144;28;20375;-51
2022/02/22 05:48:56;;;;;;;;;;;17.80;54.20;;;;;;4977745;28;19941;-54
2022/02/22 05:51:21;;;;;;;;;;;17.70;54.30;;;;;;4983762;28;19968;-50
2022/02/22 05:53:48;;;;;;;;;;;17.80;54.30;;;;;;4991506;28;19918;-49
2022/02/22 05:56:14;;;;;;;;;;;17.70;54.30;;;;;;4982508;28;19946;-51
2022/02/22 05:58:39;;;;;;;;;;;17.80;54.30;;;;;;5000048;28;20323;-50
2022/02/22 06:01:04;;;;;;;;;;;17.80;54.40;;;;;;4989786;28;19921;-52
2022/02/22 06:03:30;;;;;;;;;;;17.70;54.30;;;;;;4983389;28;19929;-50
2022/02/22 06:05:56;;;;;;;;;;;17.80;54.30;;;;;;4982635;28;19997;-51
2022/02/22 06:08:21;;;;;;;;;;;17.70;54.30;;;;;;4983636;28;19976;-52
2022/02/22 06:10:47;;;;;;;;;;;17.80;54.40;;;;;;4967623;28;20548;-51
2022/02/22 06:13:13;;;;;;;;;;;17.80;54.40;;;;;;4983726;28;19948;-51
2022/02/22 06:15:38;;;;;;;;;;;17.70;54.50;;;;;;4987910;28;20012;-49
2022/02/22 06:18:04;;;;;;;;;;;17.70;54.50;;;;;;4982363;28;19924;-49
2022/02/22 06:20:32;;;;;;;;;;;17.70;54.50;;;;;;4983243;28;19966;-50
2022/02/22 06:22:57;;;;;;;;;;;17.70;54.50;;;;;;4983171;28;20004;-50
2022/02/22 06:25:23;;;;;;;;;;;17.70;54.70;;;;;;4987417;28;20004;-50
2022/02/22 06:27:49;;;;;;;;;;;17.60;54.70;;;;;;4988075;28;19917;-50
2022/02/22 06:30:15;;;;;;;;;;;17.70;54.70;;;;;;4989089;28;19917;-52
2022/02/22 06:32:40;;;;;;;;;;;17.70;55.00;;;;;;4982195;28;20371;-47
2022/02/22 06:35:06;;;;;;;;;;;17.70;55.30;;;;;;4983052;28;19921;-51
2022/02/22 06:37:31;;;;;;;;;;;17.70;55.70;;;;;;4995001;28;19948;-54
2022/02/22 06:39:59;;;;;;;;;;;17.70;55.90;;;;;;4988986;28;19914;-53
2022/02/22 06:42:24;;;;;;;;;;;17.70;56.00;;;;;;4985984;28;19921;-47
2022/02/22 06:44:49;;;;;;;;;;;17.70;56.30;;;;;;4990807;28;19914;-49
2022/02/22 06:47:15;;;;;;;;;;;17.70;56.40;;;;;;4986385;28;19944;-50
2022/02/22 06:49:40;;;;;;;;;;;17.70;56.50;;;;;;4986096;28;20402;-49
2022/02/22 06:52:06;;;;;;;;;;;17.70;56.40;;;;;;4986296;28;19915;-49
2022/02/22 06:54:31;;;;;;;;;;;17.60;56.40;;;;;;4985307;28;19914;-50
2022/02/22 06:56:57;;;;;;;;;;;17.60;56.30;;;;;;4986079;28;20268;-49
2022/02/22 06:59:22;;;;;;;;;;;17.50;56.20;;;;;;5001370;28;19913;-51
2022/02/22 07:01:48;;;;;;;;;;;17.50;56.00;;;;;;4995053;28;19964;-48
2022/02/22 07:04:13;;;;;;;;;;;17.50;55.70;;;;;;4986375;28;20911;-52
2022/02/22 07:06:39;;;;;;;;;;;17.40;55.60;;;;;;4985427;28;19914;-49
2022/02/22 07:09:06;;;;;;;;;;;17.40;55.50;;;;;;4993425;28;19921;-50
2022/02/22 07:11:31;;;;;;;;;;;17.30;55.20;;;;;;4999407;28;20001;-48
2022/02/22 07:13:57;;;;;;;;;;;17.30;55.00;;;;;;4985229;28;20232;-49
2022/02/22 07:16:22;;;;;;;;;;;17.40;55.00;;;;;;4985615;28;20062;-51
2022/02/22 07:18:47;;;;;;;;;;;17.30;54.60;;;;;;4988921;28;19922;-50
2022/02/22 07:21:13;;;;;;;;;;;17.30;54.60;;;;;;4986645;28;19933;-49
2022/02/22 07:23:38;;;;;;;;;;;17.30;54.40;;;;;;4986744;28;19914;-50
2022/02/22 07:26:04;;;;;;;;;;;17.30;54.40;;;;;;5000452;28;19968;-50
2022/02/22 07:28:29;;;;;;;;;;;17.30;54.30;;;;;;4976663;28;19928;-50
2022/02/22 07:30:55;;;;;;;;;;;17.30;54.40;;;;;;4994712;28;20275;-49
2022/02/22 07:33:20;;;;;;;;;;;17.30;54.40;;;;;;4987050;28;19918;-51
2022/02/22 07:35:46;;;;;;;;;;;17.40;54.40;;;;;;4984909;28;19918;-51
2022/02/22 07:38:11;;;;;;;;;;;17.30;54.60;;;;;;4984504;28;19976;-51
2022/02/22 07:40:36;;;;;;;;;;;17.30;54.70;;;;;;4987159;28;19940;-53
2022/02/22 07:43:02;;;;;;;;;;;17.40;54.70;;;;;;4999060;28;19914;-52
2022/02/22 07:45:27;;;;;;;;;;;17.40;54.80;;;;;;4999956;28;19918;-52
2022/02/22 07:47:53;;;;;;;;;;;17.40;54.90;;;;;;4995608;28;19924;-51
2022/02/22 07:50:18;;;;;;;;;;;17.40;54.90;;;;;;4976952;28;19936;-49
2022/02/22 07:52:44;;;;;;;;;;;17.30;55.00;;;;;;4991441;28;19928;-55
2022/02/22 07:55:09;;;;;;;;;;;17.40;55.00;;;;;;4999977;28;19917;-53
2022/02/22 07:57:35;;;;;;;;;;;17.40;54.90;;;;;;4988868;28;19921;-51
2022/02/22 08:00:01;;;;;;;;;;;17.40;55.00;;;;;;4990027;28;19918;-50
2022/02/22 08:02:26;;;;;;;;;;;17.40;54.90;;;;;;4993171;28;19940;-54
2022/02/22 08:04:52;;;;;;;;;;;17.50;54.90;;;;;;4985641;28;20371;-50
2022/02/22 08:09:47;;;;;;;;;;;17.50;54.90;;;;;;5008081;28;20442;-62
2022/02/22 08:12:13;;;;;;;;;;;17.40;54.80;;;;;;5010817;28;20388;-57
2022/02/22 08:14:38;;;;;;;;;;;17.40;54.80;;;;;;5010421;28;19913;-62
2022/02/22 08:17:04;;;;;;;;;;;17.40;54.80;;;;;;5010104;28;19914;-62
2022/02/22 08:19:29;;;;;;;;;;;17.40;54.80;;;;;;5010071;28;19971;-58
2022/02/22 08:21:55;;;;;;;;;;;17.40;54.80;;;;;;5009829;28;19963;-61
2022/02/22 08:24:24;;;;;;;;;;;17.40;54.80;;;;;;4989019;28;19972;-64
2022/02/22 08:26:50;;;;;;;;;;;17.50;54.80;;;;;;5010137;28;19909;-59
2022/02/22 08:29:15;;;;;;;;;;;17.50;54.80;;;;;;5010676;28;19910;-56
2022/02/22 08:31:41;;;;;;;;;;;17.50;54.70;;;;;;5010273;28;20554;-62
2022/02/22 08:34:06;;;;;;;;;;;17.50;54.40;;;;;;4992265;28;19913;-63
2022/02/22 08:36:31;;;;;;;;;;;17.60;54.00;;;;;;5009703;28;19913;-55
2022/02/22 08:38:59;;;;;;;;;;;17.60;53.80;;;;;;5009098;28;19917;-57
2022/02/22 08:41:24;;;;;;;;;;;17.60;53.70;;;;;;5008896;28;19910;-64
2022/02/22 08:43:50;;;;;;;;;;;17.60;53.50;;;;;;5009979;28;19913;-58
2022/02/22 08:46:15;;;;;;;;;;;17.60;53.40;;;;;;4992275;28;19909;-62
2022/02/22 08:48:41;;;;;;;;;;;17.60;53.20;;;;;;5009038;28;19914;-60
2022/02/22 08:51:06;;;;;;;;;;;17.70;53.20;;;;;;5008990;28;19919;-64
2022/02/22 08:53:32;;;;;;;;;;;17.70;53.00;;;;;;5009119;28;19913;-61
2022/02/22 08:55:59;;;;;;;;;;;17.70;52.90;;;;;;5009288;28;19920;-62
2022/02/22 08:58:24;;;;;;;;;;;17.80;52.80;;;;;;5009191;28;19917;-65
2022/02/22 09:00:49;;;;;;;;;;;17.80;52.70;;;;;;5009870;28;19956;-63
2022/02/22 09:03:15;;;;;;;;;;;17.80;52.80;;;;;;5009311;28;20036;-64
2022/02/22 09:05:40;;;;;;;;;;;17.80;52.60;;;;;;5009471;28;19909;-56
2022/02/22 09:08:06;;;;;;;;;;;17.90;52.70;;;;;;5008718;28;19917;-63
2022/02/22 09:10:31;;;;;;;;;;;17.90;52.50;;;;;;5009471;28;20173;-63
2022/02/22 09:12:57;;;;;;;;;;;17.90;52.30;;;;;;5010521;28;19909;-60
2022/02/22 09:15:23;;;;;;;;;;;17.90;52.30;;;;;;5009474;28;19923;-56
2022/02/22 09:17:48;;;;;;;;;;;17.90;52.40;;;;;;5008418;28;20377;-59
2022/02/22 09:20:14;;;;;;;;;;;17.90;52.40;;;;;;5006140;28;20403;-64
2022/02/22 09:22:39;;;;;;;;;;;17.90;52.20;;;;;;5008598;28;19914;-65
2022/02/22 09:25:06;;;;;;;;;;;18.00;52.20;;;;;;5009544;28;19913;-60
2022/02/22 09:27:31;;;;;;;;;;;17.90;52.20;;;;;;4991333;28;20372;-63
2022/02/22 09:29:57;;;;;;;;;;;18.00;52.20;;;;;;5008541;28;19917;-56
2022/02/22 09:32:23;;;;;;;;;;;18.00;52.10;;;;;;5008371;28;20438;-60
2022/02/22 09:34:49;;;;;;;;;;;18.00;52.00;;;;;;5008614;28;19917;-63
2022/02/22 09:37:14;;;;;;;;;;;18.10;51.90;;;;;;5008207;28;20431;-61
2022/02/22 09:39:40;;;;;;;;;;;18.10;51.90;;;;;;4990134;28;20483;-59
2022/02/22 09:42:09;;;;;;;;;;;18.10;51.90;;;;;;5008276;28;19970;-64
2022/02/22 09:44:35;;;;;;;;;;;18.10;51.90;;;;;;5008032;28;20281;-63
2022/02/22 09:47:01;;;;;;;;;;;18.10;51.90;;;;;;4990628;28;20300;-59
2022/02/22 09:49:26;;;;;;;;;;;18.10;52.00;;;;;;5007857;28;19913;-64
2022/02/22 09:51:53;;;;;;;;;;;18.10;52.00;;;;;;5008470;28;19910;-64
2022/02/22 09:54:21;;;;;;;;;;;18.10;52.00;;;;;;5009079;28;19996;-64
2022/02/22 09:56:47;;;;;;;;;;;18.10;52.00;;;;;;5008906;28;19913;-55
2022/02/22 09:59:12;;;;;;;;;;;18.10;52.00;;;;;;5008575;28;19909;-58
2022/02/22 10:01:41;;;;;;;;;;;18.10;52.00;;;;;;5008554;28;19910;-53
2022/02/22 10:04:07;;;;;;;;;;;18.10;51.90;;;;;;5008695;28;19910;-60
2022/02/22 10:06:32;;;;;;;;;;;18.10;51.80;;;;;;5007585;28;19918;-55
2022/02/22 10:08:58;;;;;;;;;;;18.10;51.90;;;;;;5011972;28;20380;-60
2022/02/22 10:11:23;;;;;;;;;;;18.10;51.90;;;;;;5012818;28;19931;-63
2022/02/22 10:13:49;;;;;;;;;;;18.10;51.90;;;;;;4995817;28;19917;-58
2022/02/22 10:16:14;;;;;;;;;;;18.10;51.90;;;;;;5011493;28;19913;-58
2022/02/22 10:18:46;;;;;;;;;;;18.10;51.80;;;;;;5012090;28;19988;-60
2022/02/22 10:21:12;;;;;;;;;;;18.10;51.80;;;;;;5012189;28;20412;-63
2022/02/22 10:23:37;;;;;;;;;;;18.20;51.80;;;;;;5012361;28;19921;-63
2022/02/22 10:26:02;;;;;;;;;;;18.20;51.80;;;;;;5012062;28;19914;-63
2022/02/22 10:28:28;;;;;;;;;;;18.20;51.80;;;;;;5012382;28;19910;-57
2022/02/22 10:30:54;;;;;;;;;;;18.20;51.70;;;;;;5012392;28;19917;-61
2022/02/22 10:33:24;;;;;;;;;;;18.20;51.70;;;;;;5013032;28;19920;-59
2022/02/22 10:35:51;;;;;;;;;;;18.10;51.80;;;;;;5011507;28;19913;-64
2022/02/22 10:38:25;;;;;;;;;;;18.20;51.80;;;;;;5012137;28;19916;-58
2022/02/22 10:41:13;;;;;;;;;;;18.20;51.70;;;;;;5011793;28;19956;-62
2022/02/22 10:43:39;;;;;;;;;;;18.20;51.70;;;;;;5012198;28;19967;-62
2022/02/22 10:46:08;;;;;;;;;;;18.20;51.70;;;;;;5011380;28;19909;-60
2022/02/22 10:48:35;;;;;;;;;;;18.20;51.60;;;;;;5012004;28;20621;-63
2022/02/22 10:51:01;;;;;;;;;;;18.20;51.60;;;;;;5012075;28;19920;-63
2022/02/22 10:53:29;;;;;;;;;;;18.30;51.60;;;;;;5012354;28;19917;-60
2022/02/22 10:55:55;;;;;;;;;;;18.30;51.60;;;;;;5011793;28;19936;-66
2022/02/22 10:58:21;;;;;;;;;;;18.30;51.50;;;;;;5011626;28;20435;-62
2022/02/22 11:00:46;;;;;;;;;;;18.30;51.60;;;;;;5011526;28;20008;-64
2022/02/22 11:03:12;;;;;;;;;;;18.20;51.50;;;;;;5011694;28;20026;-58
2022/02/22 11:05:37;;;;;;;;;;;18.30;51.60;;;;;;4994394;28;19921;-62
2022/02/22 11:08:03;;;;;;;;;;;18.20;51.60;;;;;;5011341;28;20445;-60
2022/02/22 11:10:29;;;;;;;;;;;18.20;51.50;;;;;;5010963;28;19913;-61
2022/02/22 11:12:55;;;;;;;;;;;18.30;51.60;;;;;;5012049;28;19909;-64
2022/02/22 11:15:30;;;;;;;;;;;18.30;51.50;;;;;;5011140;28;19925;-65
2022/02/22 11:17:57;;;;;;;;;;;18.30;51.50;;;;;;5012573;28;19909;-60
2022/02/22 11:20:32;;;;;;;;;;;18.30;51.50;;;;;;4995484;28;19909;-62
2022/02/22 11:22:59;;;;;;;;;;;18.20;51.50;;;;;;5011820;28;19910;-56
2022/02/22 11:25:31;;;;;;;;;;;18.20;51.60;;;;;;5011752;28;19917;-61
2022/02/22 11:28:00;;;;;;;;;;;18.10;51.80;;;;;;5011930;28;19980;-54
2022/02/22 11:30:26;;;;;;;;;;;18.10;51.90;;;;;;5011185;28;19916;-64
2022/02/22 11:32:56;;;;;;;;;;;18.00;52.00;;;;;;5011512;28;20442;-60
2022/02/22 11:35:22;;;;;;;;;;;18.00;52.10;;;;;;5012298;28;19921;-63
2022/02/22 11:37:47;;;;;;;;;;;17.90;52.10;;;;;;5012144;28;19910;-54
2022/02/22 11:40:22;;;;;;;;;;;17.90;52.30;;;;;;5011695;28;19910;-57
2022/02/22 11:42:47;;;;;;;;;;;17.90;52.50;;;;;;5011536;28;19914;-63
2022/02/22 11:45:15;;;;;;;;;;;17.90;52.50;;;;;;5010898;28;19957;-62
2022/02/22 11:47:40;;;;;;;;;;;17.90;52.50;;;;;;5010251;28;19925;-64
2022/02/22 11:50:09;;;;;;;;;;;17.90;52.50;;;;;;5010916;28;19916;-61
2022/02/22 11:52:36;;;;;;;;;;;17.90;52.30;;;;;;5010436;28;20289;-56
2022/02/22 11:55:02;;;;;;;;;;;17.90;52.20;;;;;;5010913;28;20432;-59
2022/02/22 11:57:27;;;;;;;;;;;18.00;52.10;;;;;;4993565;28;19997;-63
2022/02/22 12:00:02;;;;;;;;;;;18.00;52.00;;;;;;5010242;28;19916;-54
2022/02/22 12:02:28;;;;;;;;;;;18.00;52.10;;;;;;5011184;28;19917;-64
2022/02/22 12:04:53;;;;;;;;;;;18.10;51.90;;;;;;5011388;28;19945;-56
2022/02/22 12:07:28;;;;;;;;;;;18.10;51.80;;;;;;5010088;28;19991;-58
2022/02/22 12:09:55;;;;;;;;;;;18.10;51.80;;;;;;5010128;28;19924;-62
2022/02/22 12:12:21;;;;;;;;;;;18.10;51.80;;;;;;5010955;28;19963;-55
2022/02/22 12:14:51;;;;;;;;;;;18.20;51.80;;;;;;4992889;28;19959;-55
2022/02/22 12:17:16;;;;;;;;;;;18.20;51.70;;;;;;5010747;28;19932;-57
2022/02/22 12:19:42;;;;;;;;;;;18.20;51.60;;;;;;5010503;28;20373;-60
2022/02/22 12:22:07;;;;;;;;;;;18.20;51.60;;;;;;5011048;28;19960;-58
2022/02/22 12:24:32;;;;;;;;;;;18.20;51.50;;;;;;5009858;28;19916;-61
2022/02/22 12:27:14;;;;;;;;;;;18.20;51.50;;;;;;5011017;28;19913;-57
2022/02/22 12:29:39;;;;;;;;;;;18.20;51.50;;;;;;5002572;28;19909;-61
2022/02/22 12:32:05;;;;;;;;;;;18.30;51.30;;;;;;4992492;28;19932;-58
2022/02/22 12:34:30;;;;;;;;;;;18.30;51.20;;;;;;5010420;28;20389;-63
2022/02/22 12:36:58;;;;;;;;;;;18.30;51.20;;;;;;5010022;28;19976;-58
2022/02/22 12:39:24;;;;;;;;;;;18.40;51.20;;;;;;5010212;28;19910;-60
2022/02/22 12:41:53;;;;;;;;;;;18.40;51.20;;;;;;5011525;28;19913;-62
2022/02/22 12:44:19;;;;;;;;;;;18.40;51.10;;;;;;5011271;28;19910;-56
2022/02/22 12:46:45;;;;;;;;;;;18.40;51.20;;;;;;5009719;28;20427;-59
2022/02/22 12:49:11;;;;;;;;;;;18.40;51.10;;;;;;5009536;28;20399;-62
2022/02/22 12:51:36;;;;;;;;;;;18.40;51.00;;;;;;4992542;28;19909;-63
2022/02/22 12:54:11;;;;;;;;;;;18.40;51.10;;;;;;5009936;28;19963;-63
2022/02/22 12:56:38;;;;;;;;;;;18.40;51.00;;;;;;5009744;28;19928;-62
2022/02/22 12:59:04;;;;;;;;;;;18.40;51.10;;;;;;5009449;28;20422;-55
2022/02/22 13:01:36;;;;;;;;;;;18.40;51.00;;;;;;5009856;28;19910;-63
2022/02/22 13:04:05;;;;;;;;;;;18.50;51.00;;;;;;5002993;28;20384;-59
2022/02/22 13:06:36;;;;;;;;;;;18.40;51.00;;;;;;4991859;28;19914;-59
2022/02/22 13:09:02;;;;;;;;;;;18.40;51.00;;;;;;5008816;28;20025;-57
2022/02/22 13:11:34;;;;;;;;;;;18.40;51.00;;;;;;5009052;28;19913;-61
2022/02/22 13:14:00;;;;;;;;;;;18.40;51.00;;;;;;5009428;28;20359;-58
2022/02/22 13:16:26;;;;;;;;;;;18.50;51.00;;;;;;5008965;28;19914;-58
2022/02/22 13:18:52;;;;;;;;;;;18.50;50.90;;;;;;5009370;28;19936;-54
2022/02/22 13:21:17;;;;;;;;;;;18.40;50.80;;;;;;5008849;28;20308;-64
2022/02/22 13:23:43;;;;;;;;;;;18.50;50.90;;;;;;5008795;28;19910;-59
2022/02/22 13:26:08;;;;;;;;;;;18.50;50.90;;;;;;5008850;28;20037;-61
2022/02/22 13:28:34;;;;;;;;;;;18.50;50.80;;;;;;4991486;28;19909;-61
2022/02/22 13:31:00;;;;;;;;;;;18.50;50.80;;;;;;5008975;28;20028;-62
2022/02/22 13:33:25;;;;;;;;;;;18.50;50.80;;;;;;4991636;28;19925;-64
2022/02/22 13:35:54;;;;;;;;;;;18.50;50.80;;;;;;5008913;28;20190;-62
2022/02/22 13:38:20;;;;;;;;;;;18.50;50.80;;;;;;5008412;28;19909;-63
2022/02/22 13:40:45;;;;;;;;;;;18.50;50.90;;;;;;5008757;28;19997;-60
2022/02/22 13:43:13;;;;;;;;;;;18.50;50.80;;;;;;5008221;28;19909;-62
2022/02/22 13:45:39;;;;;;;;;;;18.50;50.70;;;;;;5009180;28;19914;-62
2022/02/22 13:48:08;;;;;;;;;;;18.50;50.60;;;;;;5009446;28;19971;-63
2022/02/22 13:50:34;;;;;;;;;;;18.50;50.70;;;;;;5008065;28;19924;-59
2022/02/22 13:53:02;;;;;;;;;;;18.50;50.60;;;;;;5008085;28;19913;-64
2022/02/22 13:55:28;;;;;;;;;;;18.50;50.70;;;;;;5008913;28;19929;-62
2022/02/22 13:57:57;;;;;;;;;;;18.50;50.60;;;;;;5008618;28;19914;-66
2022/02/22 14:00:23;;;;;;;;;;;18.50;50.60;;;;;;4993181;28;19983;-64
2022/02/22 14:03:01;;;;;;;;;;;18.50;50.60;;;;;;5009730;28;19957;-59
2022/02/22 14:05:27;;;;;;;;;;;18.50;50.60;;;;;;5009354;28;19916;-57
2022/02/22 14:07:52;;;;;;;;;;;18.50;50.60;;;;;;5007140;28;20004;-57
2022/02/22 14:10:18;;;;;;;;;;;18.50;50.70;;;;;;5007990;28;19910;-63
2022/02/22 14:12:43;;;;;;;;;;;18.50;50.70;;;;;;5007961;28;19916;-64